Time;durP1;ratioP1;P1;durP2;ratioP2;P2;SDS_P1;SDS_P2;PMS_P1;PMS_P2;Temp;Humidity;BMP_temperature;BMP_pressure;BME280_temperature;BME280_humidity;BME280_pressure;Samples;Min_cycle;Max_cycle;Signal;HPM_P1;HPM_P2
2023/12/12 00:00:41;;;;;;;3.67;2.00;;;8.80;99.90;;;;;;4903885;29;20528;-75
2023/12/12 00:03:07;;;;;;;2.80;1.90;;;8.80;99.90;;;;;;4861439;29;20210;-73
2023/12/12 00:05:32;;;;;;;4.47;1.77;;;8.80;99.90;;;;;;4895557;29;20250;-71
2023/12/12 00:07:58;;;;;;;5.30;1.73;;;8.80;99.90;;;;;;4892336;29;20176;-73
2023/12/12 00:10:24;;;;;;;6.73;2.67;;;8.70;99.90;;;;;;4895577;29;20223;-73
2023/12/12 00:12:49;;;;;;;13.13;2.87;;;8.80;99.90;;;;;;4882823;29;20313;-74
2023/12/12 00:15:15;;;;;;;8.00;2.83;;;8.80;99.90;;;;;;4895920;29;20206;-73
2023/12/12 00:17:41;;;;;;;6.90;2.73;;;8.80;99.90;;;;;;4890968;29;20196;-74
2023/12/12 00:20:09;;;;;;;11.00;3.33;;;8.80;99.90;;;;;;4903168;29;20184;-74
2023/12/12 00:22:38;;;;;;;17.27;4.30;;;8.80;99.90;;;;;;4895046;29;20179;-73
2023/12/12 00:25:04;;;;;;;12.80;3.80;;;8.70;99.90;;;;;;4879439;29;20464;-73
2023/12/12 00:27:30;;;;;;;10.37;3.83;;;8.60;99.90;;;;;;4879914;29;20439;-73
2023/12/12 00:29:55;;;;;;;9.43;3.07;;;8.60;99.90;;;;;;4894275;29;20348;-75
2023/12/12 00:32:21;;;;;;;9.23;3.23;;;8.40;99.90;;;;;;4881353;29;20616;-73
2023/12/12 00:34:47;;;;;;;9.97;3.00;;;8.30;99.90;;;;;;4892558;29;20619;-73
2023/12/12 00:37:13;;;;;;;11.63;2.60;;;8.20;99.90;;;;;;4890492;29;20187;-73
2023/12/12 00:39:39;;;;;;;8.20;2.53;;;8.20;99.90;;;;;;4881126;29;20243;-73
2023/12/12 00:42:05;;;;;;;6.50;2.03;;;8.20;99.90;;;;;;4895246;29;20188;-74
2023/12/12 00:44:31;;;;;;;14.60;2.80;;;8.10;99.90;;;;;;4896655;29;20467;-72
2023/12/12 00:46:57;;;;;;;9.80;3.10;;;8.10;99.90;;;;;;4861591;29;20440;-73
2023/12/12 00:49:22;;;;;;;12.90;2.90;;;8.10;99.90;;;;;;4898769;29;20258;-74
2023/12/12 00:51:48;;;;;;;5.73;2.37;;;8.10;99.90;;;;;;4877862;29;20203;-73
2023/12/12 00:54:13;;;;;;;9.77;3.47;;;8.10;99.90;;;;;;4882201;29;20179;-71
2023/12/12 00:56:39;;;;;;;4.27;1.60;;;8.10;99.90;;;;;;4890885;29;20231;-73
2023/12/12 00:59:05;;;;;;;5.67;1.90;;;8.00;99.90;;;;;;4895328;29;20186;-74
2023/12/12 01:01:30;;;;;;;5.17;1.80;;;7.80;99.90;;;;;;4896765;29;20203;-73
2023/12/12 01:03:56;;;;;;;4.27;1.80;;;7.70;99.90;;;;;;4896434;29;20194;-73
2023/12/12 01:06:25;;;;;;;8.60;1.87;;;7.60;99.90;;;;;;4901240;29;20220;-71
2023/12/12 01:08:52;;;;;;;6.57;1.97;;;7.60;99.90;;;;;;4897961;29;20199;-72
2023/12/12 01:11:20;;;;;;;8.77;2.60;;;7.60;99.90;;;;;;4902227;29;20475;-72
2023/12/12 01:13:48;;;;;;;7.87;2.50;;;7.70;99.90;;;;;;4888921;29;20411;-73
2023/12/12 01:16:16;;;;;;;7.10;2.37;;;7.80;99.90;;;;;;4893620;29;20724;-72
2023/12/12 01:18:42;;;;;;;4.40;1.60;;;7.90;99.90;;;;;;4888286;29;20476;-73
2023/12/12 01:21:08;;;;;;;6.27;1.93;;;8.00;99.90;;;;;;4893594;29;20532;-72
2023/12/12 01:23:53;;;;;;;6.90;1.40;;;8.00;99.90;;;;;;4888447;29;20592;-74
2023/12/12 01:26:20;;;;;;;3.67;1.30;;;8.00;99.90;;;;;;4901106;29;20227;-73
2023/12/12 01:28:47;;;;;;;4.00;1.40;;;8.00;99.90;;;;;;4880364;29;20910;-72
2023/12/12 01:31:14;;;;;;;2.97;1.30;;;8.00;99.90;;;;;;4894889;29;20554;-72
2023/12/12 01:33:40;;;;;;;2.50;1.13;;;8.00;99.90;;;;;;4901051;29;20439;-72
2023/12/12 01:36:05;;;;;;;2.83;0.97;;;8.00;99.90;;;;;;4896658;29;20448;-71
2023/12/12 01:38:31;;;;;;;1.87;1.23;;;7.90;99.90;;;;;;4899906;29;20220;-73
2023/12/12 01:40:58;;;;;;;3.33;1.43;;;7.90;99.90;;;;;;4899855;29;20419;-78
2023/12/12 01:43:25;;;;;;;1.30;0.90;;;7.80;99.90;;;;;;4885977;29;20467;-72
2023/12/12 01:45:52;;;;;;;3.20;1.30;;;7.80;99.90;;;;;;4889128;29;20551;-72
2023/12/12 01:48:18;;;;;;;1.20;1.00;;;7.80;99.90;;;;;;4892208;29;20454;-73
2023/12/12 01:50:43;;;;;;;1.10;0.80;;;7.90;99.90;;;;;;4885334;29;20468;-72
2023/12/12 01:53:09;;;;;;;6.43;1.20;;;7.90;99.90;;;;;;4900212;29;20469;-71
2023/12/12 01:55:36;;;;;;;3.73;1.40;;;7.90;99.90;;;;;;4882955;29;20220;-72
2023/12/12 01:58:02;;;;;;;7.53;1.90;;;8.00;99.90;;;;;;4887183;29;20418;-72
2023/12/12 02:00:28;;;;;;;9.93;1.87;;;8.00;99.90;;;;;;4901379;29;20756;-72
2023/12/12 02:02:53;;;;;;;4.80;1.63;;;8.00;99.90;;;;;;4885582;29;20231;-71
2023/12/12 02:05:20;;;;;;;6.30;2.20;;;8.10;99.90;;;;;;4886519;29;20463;-71
2023/12/12 02:07:48;;;;;;;4.17;1.43;;;8.10;99.90;;;;;;4886400;29;20227;-71
2023/12/12 02:10:14;;;;;;;2.70;1.20;;;8.10;99.90;;;;;;4888675;29;20451;-72
2023/12/12 02:12:39;;;;;;;6.73;1.87;;;8.20;99.90;;;;;;4886547;29;20440;-71
2023/12/12 02:15:05;;;;;;;4.80;1.10;;;8.20;99.90;;;;;;4881535;29;20504;-71
2023/12/12 02:17:31;;;;;;;2.40;1.20;;;8.20;99.90;;;;;;4887672;29;20191;-72
2023/12/12 02:19:57;;;;;;;6.00;1.30;;;8.10;99.90;;;;;;4883899;29;20789;-72
2023/12/12 02:22:23;;;;;;;7.10;2.50;;;8.10;99.90;;;;;;4877686;29;20256;-73
2023/12/12 02:24:49;;;;;;;8.30;2.20;;;8.20;99.90;;;;;;4883438;29;20452;-72
2023/12/12 02:27:14;;;;;;;12.40;2.53;;;8.20;99.90;;;;;;4895462;29;20191;-72
2023/12/12 02:29:40;;;;;;;8.03;1.93;;;8.20;99.90;;;;;;4892154;29;20215;-72
2023/12/12 02:32:06;;;;;;;12.23;2.07;;;8.20;99.90;;;;;;4891993;29;20259;-72
2023/12/12 02:34:31;;;;;;;6.77;2.20;;;8.30;99.90;;;;;;4898565;29;20233;-72
2023/12/12 02:36:57;;;;;;;7.70;3.03;;;8.30;99.90;;;;;;4901640;29;20213;-72
2023/12/12 02:39:23;;;;;;;5.00;1.70;;;8.30;99.90;;;;;;4900721;29;20282;-72
2023/12/12 02:41:48;;;;;;;4.57;1.60;;;8.30;99.90;;;;;;4900498;29;20188;-73
2023/12/12 02:44:14;;;;;;;3.40;1.47;;;8.20;99.90;;;;;;4901188;29;20225;-73
2023/12/12 02:46:39;;;;;;;5.53;2.20;;;8.20;99.90;;;;;;4891576;29;20219;-72
2023/12/12 02:49:06;;;;;;;5.47;1.50;;;8.20;99.90;;;;;;4884952;29;20850;-71
2023/12/12 02:51:31;;;;;;;4.07;1.83;;;8.20;99.90;;;;;;4891077;29;20214;-72
2023/12/12 02:53:57;;;;;;;3.70;1.50;;;8.20;99.90;;;;;;4892331;29;20416;-72
2023/12/12 02:56:22;;;;;;;7.40;1.90;;;8.10;99.90;;;;;;4882025;29;20223;-73
2023/12/12 02:58:48;;;;;;;4.03;1.60;;;8.10;99.90;;;;;;4897306;29;20182;-73
2023/12/12 03:01:14;;;;;;;3.40;1.77;;;8.10;99.90;;;;;;4894027;29;20209;-74
2023/12/12 03:03:40;;;;;;;11.83;3.67;;;8.10;99.90;;;;;;4891348;29;20245;-73
2023/12/12 03:06:07;;;;;;;13.17;2.23;;;8.10;99.90;;;;;;4891483;29;20456;-72
2023/12/12 03:08:32;;;;;;;9.50;2.50;;;8.10;99.90;;;;;;4901321;29;20277;-72
2023/12/12 03:10:58;;;;;;;7.80;2.00;;;8.10;99.90;;;;;;4882040;29;20550;-71
2023/12/12 03:13:24;;;;;;;9.63;2.27;;;8.10;99.90;;;;;;4887734;29;20538;-72
2023/12/12 03:15:49;;;;;;;9.83;2.27;;;8.00;99.90;;;;;;4895299;29;20621;-72
2023/12/12 03:18:15;;;;;;;9.63;2.33;;;8.00;99.90;;;;;;4897032;29;20210;-72
2023/12/12 03:20:40;;;;;;;6.53;2.10;;;7.90;99.90;;;;;;4888538;29;20196;-72
2023/12/12 03:23:06;;;;;;;5.80;1.83;;;7.90;99.90;;;;;;4895100;29;20206;-72
2023/12/12 03:25:32;;;;;;;3.23;2.27;;;7.80;99.90;;;;;;4887305;29;20297;-72
2023/12/12 03:27:57;;;;;;;4.33;2.00;;;7.80;99.90;;;;;;4881685;29;20193;-71
2023/12/12 03:30:23;;;;;;;3.77;1.30;;;7.80;99.90;;;;;;4895498;29;20246;-73
2023/12/12 03:32:49;;;;;;;6.70;2.13;;;7.80;99.90;;;;;;4890790;29;20296;-73
2023/12/12 03:35:15;;;;;;;8.33;2.40;;;7.80;99.90;;;;;;4896243;29;20211;-72
2023/12/12 03:37:40;;;;;;;6.40;2.13;;;7.80;99.90;;;;;;4899517;29;20419;-72
2023/12/12 03:40:07;;;;;;;6.27;1.97;;;7.80;99.90;;;;;;4899919;29;20199;-73
2023/12/12 03:42:32;;;;;;;14.20;3.00;;;7.80;99.90;;;;;;4892369;29;20195;-72
2023/12/12 03:44:58;;;;;;;7.33;2.13;;;7.70;99.90;;;;;;4893084;29;20519;-73
2023/12/12 03:47:24;;;;;;;8.40;2.80;;;7.70;99.90;;;;;;4899484;29;20556;-71
2023/12/12 03:49:49;;;;;;;13.90;3.17;;;7.80;99.90;;;;;;4890353;29;20218;-72
2023/12/12 03:52:15;;;;;;;9.20;2.80;;;7.80;99.90;;;;;;4893477;29;20322;-74
2023/12/12 03:54:40;;;;;;;8.13;2.67;;;7.80;99.90;;;;;;4876435;29;20184;-73
2023/12/12 03:57:06;;;;;;;5.33;2.20;;;7.80;99.90;;;;;;4895202;29;20198;-72
2023/12/12 03:59:31;;;;;;;5.47;2.50;;;7.80;99.90;;;;;;4896050;29;20184;-72
2023/12/12 04:01:57;;;;;;;6.20;2.27;;;7.80;99.90;;;;;;4894964;29;20191;-72
2023/12/12 04:04:23;;;;;;;6.20;2.60;;;7.80;99.90;;;;;;4888409;29;20626;-73
2023/12/12 04:06:48;;;;;;;8.10;2.43;;;7.80;99.90;;;;;;4877869;29;20218;-72
2023/12/12 04:09:15;;;;;;;9.60;2.60;;;7.90;99.90;;;;;;4892999;29;20937;-72
2023/12/12 04:11:41;;;;;;;7.13;2.37;;;7.90;99.90;;;;;;4891254;29;20211;-74
2023/12/12 04:14:07;;;;;;;5.20;1.83;;;7.90;99.90;;;;;;4900195;29;20424;-73
2023/12/12 04:16:32;;;;;;;9.77;2.80;;;7.80;99.90;;;;;;4892358;29;20519;-73
2023/12/12 04:18:58;;;;;;;7.50;2.50;;;7.80;99.90;;;;;;4890854;29;20211;-73
2023/12/12 04:21:23;;;;;;;6.73;2.40;;;7.80;99.90;;;;;;4893515;29;20196;-73
2023/12/12 04:23:49;;;;;;;6.10;2.43;;;7.80;99.90;;;;;;4857499;29;20210;-74
2023/12/12 04:26:15;;;;;;;5.50;1.80;;;7.80;99.90;;;;;;4892012;29;20329;-71
2023/12/12 04:28:40;;;;;;;6.17;1.50;;;7.70;99.90;;;;;;4900322;29;20183;-74
2023/12/12 04:31:06;;;;;;;5.80;1.83;;;7.70;99.90;;;;;;4892634;29;20226;-72
2023/12/12 04:33:32;;;;;;;9.63;2.17;;;7.70;99.90;;;;;;4889068;29;20204;-71
2023/12/12 04:35:57;;;;;;;7.80;2.10;;;7.80;99.90;;;;;;4890583;29;20210;-72
2023/12/12 04:38:24;;;;;;;6.80;1.90;;;7.80;99.90;;;;;;4900630;29;20199;-73
2023/12/12 04:40:50;;;;;;;6.03;1.90;;;7.80;99.90;;;;;;4891458;29;20176;-72
2023/12/12 04:43:16;;;;;;;6.03;1.90;;;7.80;99.90;;;;;;4903841;29;20423;-71
2023/12/12 04:45:41;;;;;;;4.40;1.63;;;7.80;99.90;;;;;;4897272;29;20218;-73
2023/12/12 04:48:07;;;;;;;5.63;1.77;;;7.80;99.90;;;;;;4900877;29;20310;-72
2023/12/12 04:50:32;;;;;;;5.90;2.40;;;7.80;99.90;;;;;;4902708;29;20231;-73
2023/12/12 04:52:58;;;;;;;6.60;2.30;;;7.80;99.90;;;;;;4896531;29;20202;-73
2023/12/12 04:55:23;;;;;;;6.27;1.50;;;7.80;99.90;;;;;;4898354;29;20214;-72
2023/12/12 04:57:49;;;;;;;3.90;1.43;;;7.80;99.90;;;;;;4889491;29;20282;-72
2023/12/12 05:00:15;;;;;;;5.63;1.50;;;7.80;99.90;;;;;;4870680;29;20226;-73
2023/12/12 05:02:41;;;;;;;6.30;2.00;;;7.80;99.90;;;;;;4898053;29;20463;-73
2023/12/12 05:05:08;;;;;;;4.53;1.33;;;7.80;99.90;;;;;;4898642;29;20259;-73
2023/12/12 05:07:34;;;;;;;9.97;1.60;;;7.80;99.90;;;;;;4884924;29;20555;-73
2023/12/12 05:10:00;;;;;;;3.03;1.60;;;7.90;99.90;;;;;;4899083;29;20514;-74
2023/12/12 05:12:25;;;;;;;14.30;3.13;;;7.90;99.90;;;;;;4901318;29;20506;-73
2023/12/12 05:14:51;;;;;;;10.33;1.90;;;7.90;99.90;;;;;;4896546;29;20630;-72
2023/12/12 05:17:17;;;;;;;5.53;1.93;;;7.90;99.90;;;;;;4890898;29;20191;-71
2023/12/12 05:19:42;;;;;;;5.50;1.87;;;7.90;99.90;;;;;;4890082;29;20195;-72
2023/12/12 05:22:08;;;;;;;9.90;2.23;;;8.00;99.90;;;;;;4896621;29;20183;-72
2023/12/12 05:24:34;;;;;;;5.00;1.93;;;8.00;99.90;;;;;;4895726;29;20235;-72
2023/12/12 05:27:00;;;;;;;9.57;2.40;;;8.00;99.90;;;;;;4893909;29;20407;-73
2023/12/12 05:29:25;;;;;;;7.87;2.23;;;8.00;99.90;;;;;;4897459;29;20199;-73
2023/12/12 05:31:51;;;;;;;6.53;2.20;;;8.00;99.90;;;;;;4876675;29;20230;-75
2023/12/12 05:34:17;;;;;;;7.40;1.93;;;8.00;99.90;;;;;;4870183;29;20239;-72
2023/12/12 05:36:42;;;;;;;6.33;3.00;;;8.00;99.90;;;;;;4874276;29;20295;-72
2023/12/12 05:39:09;;;;;;;8.80;2.47;;;8.00;99.90;;;;;;4874597;29;20189;-73
2023/12/12 05:41:36;;;;;;;8.10;2.80;;;8.10;99.90;;;;;;4882491;29;20251;-73
2023/12/12 05:44:02;;;;;;;7.77;2.90;;;8.10;99.90;;;;;;4870324;29;20426;-72
2023/12/12 05:46:28;;;;;;;4.60;2.13;;;8.00;99.90;;;;;;4876923;29;20453;-74
2023/12/12 05:48:53;;;;;;;5.73;2.37;;;8.10;99.90;;;;;;4881821;29;20211;-74
2023/12/12 05:51:19;;;;;;;10.40;2.70;;;8.10;99.90;;;;;;4882981;29;20216;-73
2023/12/12 05:53:44;;;;;;;10.80;2.63;;;8.10;99.90;;;;;;4881601;29;20342;-75
2023/12/12 05:56:13;;;;;;;9.17;2.40;;;8.10;99.90;;;;;;4862460;29;20296;-75
2023/12/12 05:58:39;;;;;;;7.23;1.97;;;8.10;99.90;;;;;;4878447;29;20195;-73
2023/12/12 06:01:05;;;;;;;7.13;2.30;;;8.20;99.90;;;;;;4874510;29;20421;-73
2023/12/12 06:03:31;;;;;;;5.97;2.33;;;8.20;99.90;;;;;;4882634;29;20276;-75
2023/12/12 06:05:57;;;;;;;10.27;2.50;;;8.20;99.90;;;;;;4879529;29;20452;-73
2023/12/12 06:08:23;;;;;;;9.40;2.73;;;8.30;99.90;;;;;;4875700;29;20612;-74
2023/12/12 06:10:49;;;;;;;7.77;2.73;;;8.30;99.90;;;;;;4871680;29;20460;-72
2023/12/12 06:13:15;;;;;;;5.23;2.10;;;8.30;99.90;;;;;;4883549;29;20200;-73
2023/12/12 06:15:41;;;;;;;6.67;2.60;;;8.30;99.90;;;;;;4884437;29;20620;-73
2023/12/12 06:18:07;;;;;;;6.50;2.20;;;8.40;99.90;;;;;;4875198;29;20416;-75
2023/12/12 06:20:33;;;;;;;6.50;2.40;;;8.40;99.90;;;;;;4874780;29;20230;-74
2023/12/12 06:22:59;;;;;;;7.60;3.20;;;8.40;99.90;;;;;;4881107;29;20236;-75
2023/12/12 06:25:25;;;;;;;11.90;4.03;;;8.40;99.90;;;;;;4886353;29;20589;-73
2023/12/12 06:27:51;;;;;;;16.50;3.57;;;8.40;99.90;;;;;;4881226;29;20204;-76
2023/12/12 06:30:16;;;;;;;4.73;2.57;;;8.40;99.90;;;;;;4876943;29;20215;-77
2023/12/12 06:32:42;;;;;;;15.57;3.00;;;8.40;99.90;;;;;;4864710;29;20228;-73
2023/12/12 06:35:08;;;;;;;9.60;3.10;;;8.40;99.90;;;;;;4877428;29;20208;-73
2023/12/12 06:37:33;;;;;;;7.07;2.50;;;8.50;99.90;;;;;;4864417;29;20189;-74
2023/12/12 06:40:00;;;;;;;12.90;3.43;;;8.50;99.90;;;;;;4875274;29;20601;-74
2023/12/12 06:42:25;;;;;;;22.33;3.87;;;8.50;99.90;;;;;;4884001;29;20199;-75
2023/12/12 06:44:51;;;;;;;10.87;3.10;;;8.50;99.90;;;;;;4873291;29;20477;-77
2023/12/12 06:47:17;;;;;;;12.23;3.20;;;8.50;99.90;;;;;;4874095;29;20530;-79
2023/12/12 06:49:42;;;;;;;8.10;3.63;;;8.50;99.90;;;;;;4885773;29;20199;-76
2023/12/12 06:52:08;;;;;;;8.33;3.30;;;8.60;99.90;;;;;;4880679;29;20225;-74
2023/12/12 06:54:35;;;;;;;10.33;3.43;;;8.60;99.90;;;;;;4883860;29;20271;-79
2023/12/12 06:57:01;;;;;;;8.13;2.80;;;8.60;99.90;;;;;;4882760;29;20167;-75
2023/12/12 06:59:27;;;;;;;11.90;3.23;;;8.60;99.90;;;;;;4884161;29;20417;-74
2023/12/12 07:01:53;;;;;;;13.77;3.53;;;8.60;99.90;;;;;;4878615;29;20454;-75
2023/12/12 07:04:19;;;;;;;10.60;3.30;;;8.60;99.90;;;;;;4878420;29;20420;-76
2023/12/12 07:06:45;;;;;;;11.03;3.63;;;8.50;99.90;;;;;;4884684;29;21089;-74
2023/12/12 07:09:12;;;;;;;8.17;3.20;;;8.60;99.90;;;;;;4879557;29;20249;-75
2023/12/12 07:11:39;;;;;;;12.73;4.30;;;8.60;99.90;;;;;;4879457;29;20212;-77
2023/12/12 07:14:04;;;;;;;10.67;4.07;;;8.60;99.90;;;;;;4884951;29;20497;-76
2023/12/12 07:16:30;;;;;;;19.60;4.17;;;8.60;99.90;;;;;;4871432;29;20502;-75
2023/12/12 07:18:58;;;;;;;10.50;3.77;;;8.60;99.90;;;;;;4882321;29;20588;-75
2023/12/12 07:21:23;;;;;;;13.67;4.40;;;8.60;99.90;;;;;;4864311;29;20203;-74
2023/12/12 07:23:51;;;;;;;11.53;4.57;;;8.60;99.90;;;;;;4886447;29;20432;-76
2023/12/12 07:26:18;;;;;;;8.00;3.13;;;8.60;99.90;;;;;;4873539;29;20260;-75
2023/12/12 07:28:43;;;;;;;11.40;3.60;;;8.60;99.90;;;;;;4874536;29;20429;-74
2023/12/12 07:31:10;;;;;;;12.20;3.57;;;8.60;99.90;;;;;;4879816;29;20484;-74
2023/12/12 07:33:36;;;;;;;12.67;4.30;;;8.70;99.90;;;;;;4892939;29;20244;-76
2023/12/12 07:36:02;;;;;;;8.50;3.13;;;8.70;99.90;;;;;;4897664;29;20455;-74
2023/12/12 07:38:28;;;;;;;9.90;3.90;;;8.70;99.90;;;;;;4884316;29;20463;-73
2023/12/12 07:40:53;;;;;;;12.13;4.40;;;8.70;99.90;;;;;;4877791;29;20254;-76
2023/12/12 07:43:19;;;;;;;11.07;3.80;;;8.70;99.90;;;;;;4878849;29;20451;-76
2023/12/12 07:45:45;;;;;;;13.13;3.60;;;8.70;99.90;;;;;;4897528;29;20241;-78
2023/12/12 07:48:10;;;;;;;12.83;4.03;;;8.80;99.90;;;;;;4896732;29;20223;-76
2023/12/12 07:50:36;;;;;;;14.17;4.57;;;8.80;99.90;;;;;;4863435;29;20218;-75
2023/12/12 07:53:04;;;;;;;17.40;4.80;;;8.90;99.90;;;;;;4883856;29;20191;-75
2023/12/12 07:55:31;;;;;;;11.37;3.30;;;8.90;99.90;;;;;;4897397;29;20215;-77
2023/12/12 07:57:57;;;;;;;12.77;3.90;;;8.80;99.90;;;;;;4891968;29;20435;-76
2023/12/12 08:00:23;;;;;;;15.13;4.30;;;8.80;99.90;;;;;;4877097;29;20954;-77
2023/12/12 08:02:48;;;;;;;10.83;3.10;;;8.80;99.90;;;;;;4900667;29;20183;-73
2023/12/12 08:05:14;;;;;;;9.73;3.33;;;8.70;99.90;;;;;;4894889;29;20458;-76
2023/12/12 08:07:40;;;;;;;8.93;3.77;;;8.70;99.90;;;;;;4874043;29;20195;-74
2023/12/12 08:10:06;;;;;;;12.70;3.90;;;8.60;99.90;;;;;;4875657;29;20219;-75
2023/12/12 08:12:32;;;;;;;17.10;4.83;;;8.50;99.90;;;;;;4882844;29;20188;-75
2023/12/12 08:14:58;;;;;;;12.53;4.07;;;8.40;99.90;;;;;;4875044;29;20716;-75
2023/12/12 08:17:24;;;;;;;7.10;2.90;;;8.40;99.90;;;;;;4877150;29;20175;-73
2023/12/12 08:19:49;;;;;;;18.27;5.07;;;8.30;99.90;;;;;;4893767;29;20199;-76
2023/12/12 08:22:15;;;;;;;15.40;3.90;;;8.30;99.90;;;;;;4883109;29;20423;-74
2023/12/12 08:24:41;;;;;;;8.67;3.53;;;8.30;99.90;;;;;;4884460;29;20198;-78
2023/12/12 08:27:07;;;;;;;11.50;3.63;;;8.20;99.90;;;;;;4892890;29;20195;-76
2023/12/12 08:29:35;;;;;;;9.00;3.60;;;8.20;99.90;;;;;;4882829;29;20619;-78
2023/12/12 08:32:00;;;;;;;12.93;3.63;;;8.20;99.90;;;;;;4879064;29;20472;-75
2023/12/12 08:34:27;;;;;;;12.17;3.70;;;8.20;99.90;;;;;;4871443;29;20439;-77
2023/12/12 08:36:52;;;;;;;12.23;3.33;;;8.20;99.90;;;;;;4886465;29;20648;-75
2023/12/12 08:39:18;;;;;;;13.83;4.50;;;8.20;99.90;;;;;;4886692;29;21066;-77
2023/12/12 08:41:44;;;;;;;7.07;3.87;;;8.20;99.90;;;;;;4882040;29;20498;-77
2023/12/12 08:44:10;;;;;;;13.17;3.80;;;8.20;99.90;;;;;;4884779;29;20487;-74
2023/12/12 08:46:35;;;;;;;14.50;3.83;;;8.20;99.90;;;;;;4865957;29;20516;-77
2023/12/12 08:49:02;;;;;;;11.23;3.80;;;8.10;99.90;;;;;;4875879;29;20199;-78
2023/12/12 08:51:30;;;;;;;11.00;3.00;;;8.10;99.90;;;;;;4869659;29;20302;-75
2023/12/12 08:53:55;;;;;;;10.73;3.93;;;8.10;99.90;;;;;;4881929;29;20430;-75
2023/12/12 08:56:21;;;;;;;15.90;4.40;;;8.00;99.90;;;;;;4896133;29;20515;-75
2023/12/12 08:58:49;;;;;;;11.60;4.40;;;8.00;99.90;;;;;;4902686;29;20196;-77
2023/12/12 09:01:15;;;;;;;21.30;4.93;;;8.10;99.90;;;;;;4888533;29;20728;-77
2023/12/12 09:03:41;;;;;;;17.63;4.40;;;8.20;99.90;;;;;;4900394;29;20435;-77
2023/12/12 09:06:07;;;;;;;16.20;4.93;;;8.30;99.90;;;;;;4870991;29;20466;-75
2023/12/12 09:08:33;;;;;;;10.93;3.47;;;8.50;99.90;;;;;;4879102;29;20411;-77
2023/12/12 09:10:59;;;;;;;14.47;4.07;;;8.50;99.90;;;;;;4900559;29;20455;-77
2023/12/12 09:13:27;;;;;;;14.67;4.20;;;8.50;99.90;;;;;;4886022;29;20187;-76
2023/12/12 09:15:54;;;;;;;13.23;3.80;;;8.50;99.90;;;;;;4885548;29;20219;-74
2023/12/12 09:18:20;;;;;;;11.13;4.17;;;8.50;99.90;;;;;;4898235;29;20432;-76
2023/12/12 09:20:47;;;;;;;12.93;4.73;;;8.50;99.90;;;;;;4887339;29;20444;-78
2023/12/12 09:23:13;;;;;;;11.40;4.30;;;8.60;99.90;;;;;;4903340;29;20411;-78
2023/12/12 09:25:39;;;;;;;10.70;3.67;;;8.60;99.90;;;;;;4885944;29;20547;-78
2023/12/12 09:28:05;;;;;;;14.00;3.87;;;8.70;99.90;;;;;;4897809;29;20281;-75
2023/12/12 09:30:31;;;;;;;11.67;3.90;;;8.60;99.90;;;;;;4882604;29;20531;-77
2023/12/12 09:32:57;;;;;;;18.40;4.47;;;8.60;99.90;;;;;;4885972;29;20224;-75
2023/12/12 09:35:24;;;;;;;13.77;4.10;;;8.60;99.90;;;;;;4879789;29;20456;-76
2023/12/12 09:37:50;;;;;;;18.13;4.17;;;8.60;99.90;;;;;;4904497;29;20192;-78
2023/12/12 09:40:16;;;;;;;14.33;4.50;;;8.70;99.90;;;;;;4899748;29;20870;-77
2023/12/12 09:42:44;;;;;;;14.27;4.38;;;8.80;99.90;;;;;;4880716;29;20445;-76
2023/12/12 09:45:15;;;;;;;9.40;4.30;;;8.80;99.90;;;;;;4897714;29;20523;-77
2023/12/12 09:47:45;;;;;;;11.73;4.27;;;8.90;99.90;;;;;;4879730;29;20436;-76
2023/12/12 09:50:12;;;;;;;11.37;3.40;;;9.00;99.90;;;;;;4884443;29;20479;-78
2023/12/12 09:52:38;;;;;;;14.30;3.73;;;9.00;99.90;;;;;;4881316;29;20428;-77
2023/12/12 09:55:05;;;;;;;18.20;4.27;;;9.10;99.90;;;;;;4899997;29;20448;-78
2023/12/12 09:57:32;;;;;;;11.00;3.63;;;9.10;99.90;;;;;;4888902;29;20428;-77
2023/12/12 09:59:59;;;;;;;16.40;5.20;;;9.20;99.90;;;;;;4899832;29;20488;-78
2023/12/12 10:02:35;;;;;;;12.17;3.73;;;9.30;99.90;;;;;;4893297;29;20423;-75
2023/12/12 10:05:05;;;;;;;10.00;3.67;;;9.40;99.90;;;;;;4895795;29;20458;-76
2023/12/12 10:07:33;;;;;;;14.27;4.73;;;9.50;99.90;;;;;;4890018;29;20456;-77
2023/12/12 10:10:04;;;;;;;12.07;3.30;;;9.60;99.90;;;;;;4888058;29;20413;-76
2023/12/12 10:12:29;;;;;;;6.77;2.60;;;9.70;99.90;;;;;;4869720;29;20519;-74
2023/12/12 10:14:55;;;;;;;18.70;4.90;;;9.80;99.90;;;;;;4870147;29;20471;-78
2023/12/12 10:17:25;;;;;;;11.57;3.40;;;9.90;99.90;;;;;;4900527;29;20222;-78
2023/12/12 10:20:03;;;;;;;10.80;3.23;;;9.90;99.90;;;;;;4890323;29;20179;-77
2023/12/12 10:22:32;;;;;;;11.70;3.80;;;10.00;99.90;;;;;;4908528;29;20420;-75
2023/12/12 10:25:11;;;;;;;13.00;3.90;;;10.00;99.90;;;;;;4882294;29;20475;-75
2023/12/12 10:27:44;;;;;;;9.10;4.03;;;10.10;99.90;;;;;;4876224;29;20420;-76
2023/12/12 10:30:13;;;;;;;18.90;5.03;;;10.20;99.90;;;;;;4874321;29;20505;-77
2023/12/12 10:32:39;;;;;;;13.70;4.27;;;10.30;99.90;;;;;;4878866;29;20487;-75
2023/12/12 10:35:05;;;;;;;9.97;3.67;;;10.30;99.90;;;;;;4884898;29;20448;-75
2023/12/12 10:37:31;;;;;;;9.30;3.70;;;10.30;99.90;;;;;;4893103;29;20439;-76
2023/12/12 10:40:11;;;;;;;16.47;4.77;;;10.30;99.90;;;;;;4892737;29;20431;-77
2023/12/12 10:42:37;;;;;;;10.13;3.30;;;10.20;99.90;;;;;;4876661;29;20312;-77
2023/12/12 10:45:06;;;;;;;15.17;3.93;;;10.20;99.90;;;;;;4887253;29;20448;-76
2023/12/12 10:47:34;;;;;;;16.30;4.10;;;10.10;99.90;;;;;;4881689;29;20468;-78
2023/12/12 10:50:02;;;;;;;13.10;4.20;;;10.20;99.90;;;;;;4890347;29;20443;-78
2023/12/12 10:52:30;;;;;;;11.40;3.70;;;10.10;99.90;;;;;;4887330;29;20416;-77
2023/12/12 10:54:57;;;;;;;14.30;3.90;;;10.10;99.90;;;;;;4882418;29;20469;-77
2023/12/12 10:57:25;;;;;;;16.63;4.23;;;10.20;99.90;;;;;;4879806;29;20899;-76
2023/12/12 10:59:53;;;;;;;14.40;3.70;;;10.20;99.90;;;;;;4868130;29;20435;-77
2023/12/12 11:02:20;;;;;;;8.30;3.00;;;10.30;99.90;;;;;;4883510;29;20409;-78
2023/12/12 11:04:46;;;;;;;14.27;3.97;;;10.30;99.90;;;;;;4904568;29;20509;-78
2023/12/12 11:07:12;;;;;;;14.20;4.00;;;10.30;99.90;;;;;;4888711;29;20480;-78
2023/12/12 11:09:38;;;;;;;12.70;4.30;;;10.40;99.90;;;;;;4871822;29;20414;-76
2023/12/12 11:12:05;;;;;;;14.20;4.00;;;10.40;99.90;;;;;;4889561;29;20506;-76
2023/12/12 11:14:32;;;;;;;14.70;4.60;;;10.50;99.90;;;;;;4887732;29;20183;-78
2023/12/12 11:16:59;;;;;;;9.03;3.40;;;10.40;99.90;;;;;;4901539;29;20437;-78
2023/12/12 11:19:26;;;;;;;11.77;3.17;;;10.30;99.90;;;;;;4884077;29;20768;-77
2023/12/12 11:21:52;;;;;;;8.40;3.30;;;10.20;99.90;;;;;;4889173;29;20499;-79
2023/12/12 11:24:20;;;;;;;13.53;3.53;;;10.20;99.90;;;;;;4885471;29;20436;-78
2023/12/12 11:26:47;;;;;;;8.60;3.23;;;10.20;99.90;;;;;;4871040;29;20328;-79
2023/12/12 11:29:15;;;;;;;9.73;4.13;;;10.20;99.90;;;;;;4893049;29;20446;-78
2023/12/12 11:31:57;;;;;;;11.60;2.80;;;10.20;99.90;;;;;;4881880;29;20488;-76
2023/12/12 11:34:24;;;;;;;9.20;3.17;;;10.00;99.90;;;;;;4902365;29;20431;-78
2023/12/12 11:36:54;;;;;;;13.17;3.60;;;9.90;99.90;;;;;;4886930;29;20459;-75
2023/12/12 11:39:49;;;;;;;10.37;4.23;;;9.80;99.90;;;;;;4882981;29;20486;-77
2023/12/12 11:42:17;;;;;;;10.73;4.30;;;9.80;99.90;;;;;;4907407;29;20443;-78
2023/12/12 11:44:56;;;;;;;9.00;4.10;;;9.60;99.90;;;;;;4893883;29;20421;-78
2023/12/12 11:47:29;;;;;;;14.10;4.80;;;9.60;99.90;;;;;;4889096;29;20446;-78
2023/12/12 11:50:11;;;;;;;12.40;3.80;;;9.70;99.90;;;;;;4872561;29;20982;-78
2023/12/12 11:52:39;;;;;;;10.67;4.70;;;9.80;99.90;;;;;;4860963;29;20433;-78
2023/12/12 11:55:10;;;;;;;10.60;4.23;;;9.90;99.90;;;;;;4889599;29;20454;-77
2023/12/12 11:57:38;;;;;;;18.03;5.03;;;10.00;99.90;;;;;;4870274;29;20497;-77
2023/12/12 12:00:07;;;;;;;9.43;4.00;;;10.10;99.90;;;;;;4904210;29;20536;-78
2023/12/12 12:02:33;;;;;;;12.73;4.87;;;10.10;99.90;;;;;;4906600;29;20460;-77
2023/12/12 12:04:58;;;;;;;13.63;5.13;;;10.20;99.90;;;;;;4890847;29;20528;-77
2023/12/12 12:07:28;;;;;;;12.37;4.27;;;10.30;99.90;;;;;;4890398;29;20258;-77
2023/12/12 12:09:54;;;;;;;12.50;4.57;;;10.30;99.90;;;;;;4888802;29;20191;-77
2023/12/12 12:12:20;;;;;;;12.10;4.20;;;10.30;99.90;;;;;;4879840;29;20484;-77
2023/12/12 12:14:45;;;;;;;14.10;4.60;;;10.30;99.90;;;;;;4885765;29;20456;-78
2023/12/12 12:17:11;;;;;;;10.27;4.00;;;10.30;99.90;;;;;;4872367;29;20416;-78
2023/12/12 12:19:38;;;;;;;11.90;4.60;;;10.20;99.90;;;;;;4887379;29;20243;-78
2023/12/12 12:22:09;;;;;;;12.00;4.70;;;10.20;99.90;;;;;;4882325;29;20192;-79
2023/12/12 12:24:47;;;;;;;16.70;4.27;;;10.10;99.90;;;;;;4897314;29;20423;-78
2023/12/12 12:27:13;;;;;;;8.47;4.40;;;10.10;99.90;;;;;;4869879;29;20813;-76
2023/12/12 12:29:40;;;;;;;10.57;5.33;;;10.00;99.90;;;;;;4885607;29;20859;-78
2023/12/12 12:32:13;;;;;;;11.60;3.97;;;10.10;99.90;;;;;;4894285;29;20539;-78
2023/12/12 12:34:40;;;;;;;9.90;3.90;;;10.00;99.90;;;;;;4898947;29;20413;-79
2023/12/12 12:37:06;;;;;;;11.63;3.83;;;9.90;99.90;;;;;;4872234;29;20432;-77
2023/12/12 12:39:44;;;;;;;14.27;4.60;;;9.80;99.90;;;;;;4884830;29;20492;-78
2023/12/12 12:42:10;;;;;;;8.80;4.67;;;9.60;99.90;;;;;;4899620;29;20428;-75
2023/12/12 12:44:41;;;;;;;17.50;5.30;;;9.50;99.90;;;;;;4877307;29;20874;-79
2023/12/12 12:47:10;;;;;;;11.47;4.53;;;9.40;99.90;;;;;;4909408;29;20455;-79